KPZQ METAR Reports


Rogers City, Presque Isle County Airport, MI, United States (KPZQ) 45-24-25N 083-48-46W
Feb 24, 2020 - 08:36 AM EST / 2020.02.24 1336 UTC
Wind: from the WSW (250 degrees) at 8 MPH (7 KT):0
Visibility: 10 mile(s):0
Sky conditions: clear
Temperature: 32.9 F (0.5 C)
Windchill: 26 F (-3 C):1
Dew Point: 25.7 F (-3.5 C)
Relative Humidity: 74%
Pressure (altimeter): 29.9 in. Hg (1012 hPa)
ob: KPZQ 241336Z AUTO 25007KT 10SM CLR 01/M03 A2990 RMK AO2 T00051035
cycle: 13

 

Rogers City METAR Meteogram

Weather Chart

Nearby METAR Reports

KPZQ - Rogers City, Michigan, USA
Distance from station: SSW 1mi, 2km
Updated: Mon, 24-Feb-2020 8:36am EST
Clear
Clear
 Wind from WSW
Wind: WSW 8 mph , 13 km/h
Temperature: 34°F , 1°C
Wind Chill: 27°F , -3°C
Dew Point: 27°F , -3°C
Humidity: 75%
Barometer: 29.90 inHg , 1012.5 hPa
Clouds: Clear
Visibility: 10 miles , 16 km
2020/02/24 13:36 KPZQ 241336Z AUTO 25007KT 10SM CLR 01/M03 A2990 RMK AO2 T00051035
KAPN - Alpena, Michigan, USA
Distance from station: SSE 27mi, 43km
Updated: Mon, 24-Feb-2020 7:54am EST
NOT Current
Clear
Clear
 Wind from WSW
Wind: WSW 5 mph , 7 km/h
Temperature: 30°F , -1°C
Wind Chill: 25°F , -4°C
Dew Point: 25°F , -4°C
Humidity: 80%
Barometer: 29.89 inHg , 1012.2 hPa
Clouds: Clear
Visibility: 10 miles , 16 km
2020/02/24 12:54 KAPN 241254Z 24004KT 10SM CLR M01/M04 A2989 RMK AO2 SLP128 T10111044
 
KSLH - Cheboygan, Michigan, USA
Distance from station: WNW 38mi, 61km
Updated: Mon, 24-Feb-2020 8:35am EST
Clear
Clear
 Wind from W
Wind: W 8 mph , 13 km/h
Temperature: 34°F , 1°C
Wind Chill: 27°F , -3°C
Dew Point: 27°F , -3°C
Humidity: 75%
Barometer: 29.87 inHg , 1011.5 hPa
Clouds: Clear
Visibility: 10 miles , 16 km
2020/02/24 13:35 KSLH 241335Z AUTO 26007KT 10SM CLR 01/M03 A2987 RMK AO2 T00061035
KDRM - Drummond Is, Michigan, USA
Distance from station: N 40mi, 65km
Updated: Mon, 24-Feb-2020 8:36am EST
Clear
Clear
 Wind from W
Wind: W 3 mph , 6 km/h
Temperature: 32°F , 0°C
Dew Point: 27°F , -3°C
Humidity: 80%
Barometer: 29.85 inHg , 1010.8 hPa
Clouds: Clear
Visibility: 10 miles , 16 km
2020/02/24 13:36 KDRM 241336Z AUTO 26003KT 10SM CLR 00/M03 A2985 RMK AO2 T10021034
 
KPLN - Pellston, Michigan, USA
Distance from station: WNW 49mi, 79km
Updated: Mon, 24-Feb-2020 7:54am EST
NOT Current
Clear
Clear
 Wind from W
Wind: W 6 mph , 9 km/h
Temperature: 28°F , -2°C
Wind Chill: 21°F , -6°C
Dew Point: 23°F , -5°C
Humidity: 80%
Barometer: 29.88 inHg , 1011.9 hPa
Clouds: Clear
Visibility: 10 miles , 16 km
2020/02/24 12:54 KPLN 241254Z AUTO 28005KT 10SM CLR M02/M05 A2988 RMK AO2 SLP125 T10171050
KMCD - Mackinac Island, Michigan, USA
Distance from station: NW 50mi, 80km
Updated: Mon, 24-Feb-2020 8:36am EST
Clear
Clear
 Wind from W
Wind: W 7 mph , 11 km/h
Temperature: 30°F , -1°C
Wind Chill: 23°F , -5°C
Dew Point: 27°F , -3°C
Humidity: 86%
Barometer: 29.87 inHg , 1011.5 hPa
Clouds: Clear
Visibility: 10 miles , 16 km
2020/02/24 13:36 KMCD 241336Z AUTO 27006KT 10SM CLR M01/M03 A2987 RMK AO2 T10111035